Time;durP1;ratioP1;P1;durP2;ratioP2;P2;SDS_P1;SDS_P2;PMS_P1;PMS_P2;Temp;Humidity;BMP_temperature;BMP_pressure;BME280_temperature;BME280_humidity;BME280_pressure;Samples;Min_cycle;Max_cycle;Signal;HPM_P1;HPM_P2
2022/08/09 00:02:08;;;;;;;0.93;0.25;;;21.30;57.40;;;;;;5155528;27;20037;-65
2022/08/09 00:04:35;;;;;;;1.00;0.40;;;21.30;57.40;;;;;;5155398;27;20034;-65
2022/08/09 00:07:01;;;;;;;1.55;0.45;;;21.30;57.40;;;;;;5136560;27;20046;-65
2022/08/09 00:09:27;;;;;;;0.93;0.30;;;21.30;57.40;;;;;;5136758;27;20048;-65
2022/08/09 00:11:53;;;;;;;0.85;0.30;;;21.40;57.50;;;;;;5155234;27;20042;-65
2022/08/09 00:14:19;;;;;;;1.40;0.30;;;21.30;57.40;;;;;;5136723;27;20039;-65
2022/08/09 00:16:45;;;;;;;0.80;0.30;;;21.30;57.50;;;;;;5136563;27;20039;-65
2022/08/09 00:19:10;;;;;;;0.80;0.40;;;21.30;57.50;;;;;;5136567;27;20129;-65
2022/08/09 00:21:37;;;;;;;1.73;0.40;;;21.30;57.40;;;;;;5136673;27;20045;-65
2022/08/09 00:24:03;;;;;;;0.50;0.30;;;21.30;57.40;;;;;;5136469;27;20062;-65
2022/08/09 00:26:30;;;;;;;0.63;0.20;;;21.30;57.50;;;;;;5155041;27;20077;-65
2022/08/09 00:28:57;;;;;;;2.60;0.30;;;21.30;57.50;;;;;;5154954;27;20051;-65
2022/08/09 00:31:24;;;;;;;0.45;0.30;;;21.30;57.50;;;;;;5154853;27;20108;-65
2022/08/09 00:33:51;;;;;;;0.47;0.20;;;21.30;57.50;;;;;;5119589;27;20042;-65
2022/08/09 00:36:18;;;;;;;0.60;0.32;;;21.30;57.50;;;;;;5136314;27;20082;-65
2022/08/09 00:38:44;;;;;;;1.17;0.40;;;21.30;58.20;;;;;;5136510;27;20053;-65
2022/08/09 00:41:12;;;;;;;0.47;0.28;;;21.30;57.50;;;;;;5136032;27;20393;-65
2022/08/09 00:43:39;;;;;;;0.75;0.22;;;21.30;57.50;;;;;;5135953;27;20038;-65
2022/08/09 00:46:07;;;;;;;1.35;0.40;;;21.20;58.20;;;;;;5136208;27;20045;-65
2022/08/09 00:48:33;;;;;;;0.52;0.20;;;21.20;57.40;;;;;;5135716;27;20051;-65
2022/08/09 00:51:03;;;;;;;0.80;0.30;;;21.20;57.50;;;;;;5136108;27;20046;-65
2022/08/09 00:53:29;;;;;;;;;;;21.30;57.50;;;;;;5136240;27;20035;-65
2022/08/09 00:55:55;;;;;;;0.50;0.20;;;21.30;57.50;;;;;;5136070;27;20320;-65
2022/08/09 00:58:21;;;;;;;0.93;0.30;;;21.20;57.50;;;;;;5135193;27;20049;-66
2022/08/09 01:00:49;;;;;;;2.60;0.50;;;21.20;57.50;;;;;;5136081;27;20038;-65
2022/08/09 01:03:23;;;;;;;1.40;0.40;;;21.20;57.50;;;;;;5154248;27;20448;-65
2022/08/09 01:06:03;;;;;;;2.15;0.40;;;21.20;57.50;;;;;;5154130;27;20451;-65
2022/08/09 01:14:02;;;;;;;0.93;0.40;;;21.20;57.40;;;;;;5130361;27;20350;-65
2022/08/09 01:16:34;;;;;;;0.85;0.30;;;21.20;57.40;;;;;;5129110;28;20475;-65
2022/08/09 01:19:11;;;;;;;0.57;0.30;;;21.20;57.40;;;;;;5128951;28;20047;-65
2022/08/09 01:21:45;;;;;;;0.70;0.30;;;21.10;57.40;;;;;;5128995;28;20043;-65
2022/08/09 01:29:43;;;;;;;0.70;0.30;;;21.10;57.40;;;;;;5130350;27;20379;-65
2022/08/09 01:32:12;;;;;;;0.68;0.30;;;21.10;57.40;;;;;;5129052;28;20047;-65
2022/08/09 01:34:41;;;;;;;0.55;0.20;;;21.10;57.40;;;;;;5129217;28;20031;-65
2022/08/09 01:37:11;;;;;;;1.05;0.30;;;21.10;57.40;;;;;;5128884;28;20044;-65
2022/08/09 01:39:39;;;;;;;0.73;0.30;;;21.10;57.30;;;;;;5129098;28;20047;-65
2022/08/09 01:42:06;;;;;;;1.42;0.30;;;21.10;57.40;;;;;;5128811;28;20110;-65
2022/08/09 01:44:33;;;;;;;1.20;0.40;;;21.10;57.40;;;;;;5130192;27;20039;-65
2022/08/09 01:47:01;;;;;;;0.50;0.30;;;21.10;57.30;;;;;;5128720;28;20127;-65
2022/08/09 01:49:29;;;;;;;0.80;0.30;;;21.10;57.30;;;;;;5128932;28;20398;-73
2022/08/09 01:51:58;;;;;;;1.40;0.20;;;21.10;57.30;;;;;;5128631;28;20043;-65
2022/08/09 01:54:30;;;;;;;0.30;0.20;;;21.10;57.30;;;;;;5128814;28;20043;-65
2022/08/09 01:56:59;;;;;;;1.00;0.30;;;21.10;57.30;;;;;;5128864;28;20035;-65
2022/08/09 01:59:26;;;;;;;0.95;0.20;;;21.00;57.30;;;;;;5128705;28;20412;-65
2022/08/09 02:01:54;;;;;;;1.83;0.60;;;21.10;57.40;;;;;;5128522;28;20073;-65
2022/08/09 02:04:21;;;;;;;1.02;0.30;;;21.00;57.20;;;;;;5128625;28;20039;-65
2022/08/09 02:07:25;;;;;;;1.38;0.20;;;21.10;57.40;;;;;;5128630;28;20043;-65
2022/08/09 02:09:49;;;;;;;1.08;0.30;;;21.00;57.30;;;;;;5128376;28;20047;-65
2022/08/09 02:12:17;;;;;;;0.50;0.20;;;21.10;57.40;;;;;;5128597;28;20062;-65
2022/08/09 02:14:45;;;;;;;0.50;0.20;;;21.00;57.30;;;;;;5129459;27;20046;-65
2022/08/09 02:17:12;;;;;;;0.47;0.20;;;21.00;57.30;;;;;;5129423;27;20498;-65
2022/08/09 02:19:38;;;;;;;0.30;0.20;;;21.00;57.30;;;;;;5128068;28;20114;-65
2022/08/09 02:22:21;;;;;;;0.88;0.30;;;21.00;57.30;;;;;;5128334;28;20088;-65
2022/08/09 02:24:52;;;;;;;0.80;0.20;;;21.00;57.30;;;;;;5128228;28;20427;-65
2022/08/09 02:27:20;;;;;;;1.98;0.25;;;21.00;57.30;;;;;;5127890;28;20398;-65
2022/08/09 02:29:50;;;;;;;0.60;0.20;;;21.00;57.30;;;;;;5127831;28;20428;-65
2022/08/09 02:32:20;;;;;;;0.97;0.20;;;21.00;57.30;;;;;;5127948;28;20085;-65
2022/08/09 02:34:49;;;;;;;0.52;0.30;;;21.00;57.30;;;;;;5128048;28;20329;-65
2022/08/09 02:37:18;;;;;;;0.63;0.20;;;21.00;57.30;;;;;;5129207;27;20043;-65
2022/08/09 02:39:49;;;;;;;1.02;0.30;;;21.00;57.30;;;;;;5121635;27;20745;-65
2022/08/09 02:42:21;;;;;;;0.40;0.30;;;21.00;57.30;;;;;;5113989;28;20050;-65
2022/08/09 02:44:54;;;;;;;1.38;0.30;;;21.00;57.30;;;;;;5115294;27;20615;-73
2022/08/09 02:47:22;;;;;;;0.68;0.20;;;20.90;57.20;;;;;;5114036;28;20536;-73
2022/08/09 02:50:08;;;;;;;0.50;0.20;;;20.90;57.20;;;;;;5114103;28;20042;-65
2022/08/09 02:52:48;;;;;;;0.38;0.22;;;20.90;57.20;;;;;;5114101;28;20428;-65
2022/08/09 02:55:16;;;;;;;0.43;0.20;;;20.90;57.20;;;;;;5114040;28;20428;-65
2022/08/09 02:57:44;;;;;;;0.35;0.20;;;20.90;57.20;;;;;;5113999;28;20445;-65
2022/08/09 03:00:11;;;;;;;0.50;0.20;;;20.90;57.20;;;;;;5113690;28;20051;-65
2022/08/09 03:02:38;;;;;;;0.32;0.20;;;20.90;57.20;;;;;;5113809;28;20044;-65
2022/08/09 03:05:08;;;;;;;0.63;0.20;;;20.90;57.10;;;;;;5114940;28;20039;-65
2022/08/09 03:07:34;;;;;;;0.40;0.20;;;20.90;57.20;;;;;;5113259;28;20563;-65
2022/08/09 03:10:02;;;;;;;0.57;0.30;;;20.90;57.10;;;;;;5113450;28;20127;-65
2022/08/09 03:12:29;;;;;;;0.40;0.20;;;20.90;57.10;;;;;;5113426;28;20043;-65
2022/08/09 03:14:56;;;;;;;0.40;0.20;;;20.90;57.10;;;;;;5113400;28;20475;-65
2022/08/09 03:17:22;;;;;;;0.50;0.28;;;20.90;57.10;;;;;;5113322;28;20055;-65
2022/08/09 03:19:49;;;;;;;0.90;0.22;;;20.90;57.10;;;;;;5114550;28;20043;-65
2022/08/09 03:22:17;;;;;;;0.40;0.20;;;20.90;57.10;;;;;;5113114;28;20036;-73
2022/08/09 03:24:42;;;;;;;0.38;0.20;;;20.90;57.10;;;;;;5113511;28;20040;-65
2022/08/09 03:27:09;;;;;;;0.52;0.20;;;20.90;57.10;;;;;;5112854;28;20494;-65
2022/08/09 03:29:37;;;;;;;0.52;0.20;;;20.90;57.10;;;;;;5113137;28;20044;-65
2022/08/09 03:32:04;;;;;;;0.60;0.30;;;20.90;57.00;;;;;;5112987;28;20479;-65
2022/08/09 03:34:30;;;;;;;0.52;0.25;;;20.80;57.00;;;;;;5114302;28;20119;-65
2022/08/09 03:36:57;;;;;;;1.80;0.20;;;20.90;57.00;;;;;;5112830;28;20487;-65
2022/08/09 03:39:24;;;;;;;0.73;0.10;;;20.90;57.00;;;;;;5112917;28;20035;-65
2022/08/09 03:41:50;;;;;;;0.73;0.30;;;20.80;57.00;;;;;;5112757;28;20050;-65
2022/08/09 03:44:16;;;;;;;0.52;0.22;;;20.80;57.00;;;;;;5112798;28;20042;-65
2022/08/09 03:46:43;;;;;;;0.70;0.30;;;20.80;57.00;;;;;;5112970;28;20062;-65
2022/08/09 03:49:10;;;;;;;0.22;0.20;;;20.80;57.00;;;;;;5113953;28;20036;-65
2022/08/09 03:51:39;;;;;;;0.60;0.20;;;20.80;57.00;;;;;;5111913;28;20429;-65
2022/08/09 03:54:05;;;;;;;0.60;0.20;;;20.80;57.00;;;;;;5112827;28;20059;-65
2022/08/09 03:56:31;;;;;;;0.50;0.20;;;20.80;57.00;;;;;;5112581;28;20040;-65
2022/08/09 03:58:57;;;;;;;1.13;0.30;;;20.80;57.00;;;;;;5112462;28;20058;-65
2022/08/09 04:01:22;;;;;;;0.40;0.20;;;20.80;57.00;;;;;;5112501;28;20066;-66
2022/08/09 04:03:51;;;;;;;0.90;0.30;;;20.80;57.00;;;;;;5095365;28;20140;-65
2022/08/09 04:06:17;;;;;;;0.40;0.20;;;20.80;57.00;;;;;;5112259;28;20047;-65
2022/08/09 04:08:43;;;;;;;0.47;0.20;;;20.80;57.00;;;;;;5112245;28;20043;-65
2022/08/09 04:11:10;;;;;;;0.60;0.20;;;20.80;57.00;;;;;;5112315;28;20054;-65
2022/08/09 04:13:35;;;;;;;1.77;0.30;;;20.80;57.00;;;;;;5112208;28;20043;-65
2022/08/09 04:16:01;;;;;;;0.35;0.10;;;20.80;57.00;;;;;;5113485;28;20040;-65
2022/08/09 04:18:27;;;;;;;0.90;0.20;;;20.80;57.70;;;;;;5112352;28;20086;-65
2022/08/09 04:20:53;;;;;;;0.60;0.20;;;20.80;57.00;;;;;;5112394;28;20057;-65
2022/08/09 04:23:19;;;;;;;0.65;0.30;;;20.70;57.00;;;;;;5112535;28;20052;-65
2022/08/09 04:25:45;;;;;;;0.30;0.30;;;20.80;57.00;;;;;;5112294;28;20506;-65
2022/08/09 04:28:11;;;;;;;0.77;0.22;;;20.70;56.90;;;;;;5111703;28;20048;-65
2022/08/09 04:30:36;;;;;;;0.50;0.20;;;20.70;56.90;;;;;;5112070;28;20047;-65
2022/08/09 04:33:02;;;;;;;0.55;0.10;;;20.70;56.90;;;;;;5113176;28;20040;-65
2022/08/09 04:35:28;;;;;;;0.32;0.17;;;20.70;56.90;;;;;;5112001;28;20035;-65
2022/08/09 04:37:53;;;;;;;0.40;0.10;;;20.70;56.90;;;;;;5112964;28;20043;-65
2022/08/09 04:40:19;;;;;;;0.28;0.20;;;20.70;56.90;;;;;;5111812;28;20043;-65
2022/08/09 04:42:46;;;;;;;0.30;0.20;;;20.70;56.90;;;;;;5113144;28;20043;-65
2022/08/09 04:45:11;;;;;;;0.70;0.20;;;20.70;56.90;;;;;;5111910;28;20133;-65
2022/08/09 04:47:37;;;;;;;0.45;0.10;;;20.70;56.90;;;;;;5111521;28;20032;-65
2022/08/09 04:50:03;;;;;;;0.55;0.10;;;20.70;56.90;;;;;;5112805;28;20031;-65
2022/08/09 04:52:29;;;;;;;0.32;0.15;;;20.70;56.90;;;;;;5111538;28;20043;-65
2022/08/09 04:54:58;;;;;;;0.35;0.13;;;20.70;56.80;;;;;;5111331;28;20051;-65
2022/08/09 04:57:24;;;;;;;0.73;0.30;;;20.70;56.90;;;;;;5112777;28;20429;-65
2022/08/09 04:59:52;;;;;;;0.40;0.10;;;20.70;56.80;;;;;;5111618;28;20130;-65
2022/08/09 05:02:17;;;;;;;0.50;0.20;;;20.70;56.80;;;;;;5111406;28;20036;-73
2022/08/09 05:04:43;;;;;;;0.30;0.20;;;20.70;56.80;;;;;;5111583;28;20132;-65
2022/08/09 05:07:09;;;;;;;1.20;0.20;;;20.70;56.80;;;;;;5111144;28;20031;-65
2022/08/09 05:09:34;;;;;;;0.10;0.10;;;20.70;56.80;;;;;;5112631;28;20044;-65
2022/08/09 05:12:00;;;;;;;0.50;0.20;;;20.70;56.80;;;;;;5112439;28;20077;-65
2022/08/09 05:14:25;;;;;;;0.88;0.20;;;20.70;56.90;;;;;;5111509;28;20035;-65
2022/08/09 05:16:51;;;;;;;0.30;0.20;;;20.70;56.80;;;;;;5111464;28;20475;-65
2022/08/09 05:19:20;;;;;;;0.50;0.20;;;20.70;56.80;;;;;;5111140;28;20481;-65
2022/08/09 05:21:47;;;;;;;0.35;0.20;;;20.60;56.80;;;;;;5111267;28;20071;-65
2022/08/09 05:24:13;;;;;;;1.90;0.22;;;20.60;56.80;;;;;;5111078;28;20059;-65
2022/08/09 05:26:39;;;;;;;0.38;0.20;;;20.60;56.80;;;;;;5111076;28;20047;-65
2022/08/09 05:29:05;;;;;;;0.70;0.17;;;20.60;56.80;;;;;;5110823;28;20048;-65
2022/08/09 05:31:30;;;;;;;0.40;0.20;;;20.60;56.80;;;;;;5110976;28;20078;-65
2022/08/09 05:33:56;;;;;;;0.43;0.20;;;20.60;56.90;;;;;;5111095;28;20036;-65
2022/08/09 05:36:21;;;;;;;0.30;0.10;;;20.60;56.80;;;;;;5110946;28;20101;-65
2022/08/09 05:38:47;;;;;;;0.47;0.10;;;20.60;56.80;;;;;;5112176;28;20043;-65
2022/08/09 05:41:13;;;;;;;0.43;0.20;;;20.60;56.90;;;;;;5112439;28;20046;-65
2022/08/09 05:43:38;;;;;;;0.35;0.10;;;20.70;56.90;;;;;;5094272;28;20078;-65
2022/08/09 05:46:04;;;;;;;0.45;0.20;;;20.60;56.90;;;;;;5110813;28;20035;-66
2022/08/09 05:48:30;;;;;;;0.38;0.20;;;20.70;56.90;;;;;;5112162;28;20075;-65
2022/08/09 05:50:55;;;;;;;0.20;0.10;;;20.60;56.80;;;;;;5111147;28;20505;-65
2022/08/09 05:53:21;;;;;;;0.40;0.10;;;20.60;56.90;;;;;;5110982;28;20038;-65
2022/08/09 05:55:47;;;;;;;0.22;0.10;;;20.60;56.90;;;;;;5110984;28;20434;-65
2022/08/09 05:58:12;;;;;;;0.20;0.10;;;20.60;56.90;;;;;;5111017;28;20471;-65
2022/08/09 06:00:38;;;;;;;0.70;0.17;;;20.60;56.90;;;;;;5110786;28;20546;-65
2022/08/09 06:03:04;;;;;;;0.77;0.20;;;20.60;56.90;;;;;;5110587;28;20044;-72
2022/08/09 06:05:32;;;;;;;0.38;0.25;;;20.60;56.90;;;;;;5110675;28;20044;-65
2022/08/09 06:07:58;;;;;;;0.43;0.20;;;20.60;57.00;;;;;;5110664;28;20043;-65
2022/08/09 06:10:36;;;;;;;0.13;0.10;;;20.60;57.00;;;;;;5111832;28;20395;-65
2022/08/09 06:13:04;;;;;;;0.40;0.20;;;20.60;57.00;;;;;;5110837;28;20115;-66
2022/08/09 06:15:30;;;;;;;0.73;0.20;;;20.60;57.00;;;;;;5114405;28;20122;-65
2022/08/09 06:17:55;;;;;;;2.05;0.30;;;20.60;57.00;;;;;;5114253;28;20071;-65
2022/08/09 06:20:21;;;;;;;1.30;0.30;;;20.60;57.00;;;;;;5114715;28;20036;-65
2022/08/09 06:22:47;;;;;;;4.03;0.32;;;20.60;57.10;;;;;;5114266;28;20550;-65
2022/08/09 06:25:12;;;;;;;2.85;0.40;;;20.60;57.10;;;;;;5114416;28;20048;-65
2022/08/09 06:27:38;;;;;;;4.30;0.70;;;20.60;57.10;;;;;;5113968;28;20055;-65
2022/08/09 06:30:04;;;;;;;1.33;0.55;;;20.60;57.10;;;;;;5114503;28;20043;-65
2022/08/09 06:32:29;;;;;;;3.08;0.40;;;20.60;57.10;;;;;;5114108;28;20425;-65
2022/08/09 06:34:55;;;;;;;4.32;0.47;;;20.60;57.10;;;;;;5114172;28;20046;-65
2022/08/09 06:37:21;;;;;;;1.10;0.38;;;20.60;57.10;;;;;;5114430;28;20050;-66
2022/08/09 06:39:46;;;;;;;5.30;0.90;;;20.60;57.00;;;;;;5115163;28;20044;-66
2022/08/09 06:42:12;;;;;;;5.45;0.50;;;20.70;57.00;;;;;;5114050;28;20088;-75
2022/08/09 06:44:38;;;;;;;1.45;0.43;;;20.70;57.10;;;;;;5114246;28;20123;-66
2022/08/09 06:47:03;;;;;;;4.63;0.68;;;20.70;57.00;;;;;;5115250;28;20155;-65
2022/08/09 06:49:29;;;;;;;3.13;0.40;;;20.60;57.00;;;;;;5113766;28;20039;-66
2022/08/09 06:51:54;;;;;;;4.82;1.30;;;20.70;57.00;;;;;;5115148;28;20491;-66
2022/08/09 06:54:20;;;;;;;2.03;0.45;;;20.70;57.00;;;;;;5113644;28;20078;-66
2022/08/09 06:56:46;;;;;;;4.07;0.65;;;20.60;57.00;;;;;;5113807;28;20071;-65
2022/08/09 06:59:11;;;;;;;1.90;0.40;;;20.60;57.00;;;;;;5114938;28;20048;-66
2022/08/09 07:01:37;;;;;;;2.95;0.40;;;20.70;57.00;;;;;;5113435;28;20120;-66
2022/08/09 07:04:03;;;;;;;1.65;0.30;;;20.70;57.00;;;;;;5114808;28;20035;-65
2022/08/09 07:06:29;;;;;;;2.67;0.30;;;20.70;57.00;;;;;;5113707;28;20035;-66
2022/08/09 07:08:54;;;;;;;2.28;0.60;;;20.70;57.00;;;;;;5114684;28;20051;-65
2022/08/09 07:11:20;;;;;;;7.28;1.15;;;20.70;57.00;;;;;;5113500;28;20035;-66
2022/08/09 07:13:45;;;;;;;4.82;0.40;;;20.70;57.70;;;;;;5113274;28;20145;-66
2022/08/09 07:16:11;;;;;;;4.40;0.60;;;20.70;57.00;;;;;;5112995;28;20144;-66
2022/08/09 07:18:37;;;;;;;2.05;0.45;;;20.70;57.00;;;;;;5113296;28;20042;-66
2022/08/09 07:21:02;;;;;;;2.85;0.65;;;20.70;56.90;;;;;;5113291;28;20047;-65
2022/08/09 07:23:28;;;;;;;2.95;0.45;;;20.70;56.90;;;;;;5113212;28;20036;-65
2022/08/09 07:25:54;;;;;;;1.88;0.47;;;20.70;56.90;;;;;;5114235;28;20086;-66
2022/08/09 07:28:19;;;;;;;2.30;0.60;;;20.70;56.90;;;;;;5112823;28;20502;-66
2022/08/09 07:30:45;;;;;;;4.50;0.80;;;20.70;56.90;;;;;;5112817;28;20132;-65
2022/08/09 07:33:11;;;;;;;2.20;0.40;;;20.70;56.90;;;;;;5112867;28;20587;-66
2022/08/09 07:35:37;;;;;;;2.75;0.38;;;20.70;56.80;;;;;;5114359;28;20105;-66
2022/08/09 07:38:03;;;;;;;1.67;0.25;;;20.70;56.90;;;;;;5112972;28;20079;-66
2022/08/09 07:40:28;;;;;;;1.08;0.30;;;20.70;56.80;;;;;;5112834;28;20172;-65
2022/08/09 07:45:31;;;;;;;3.20;0.65;;;20.70;56.80;;;;;;5152390;27;1176995;-65
2022/08/09 07:47:58;;;;;;;3.15;0.30;;;20.70;56.90;;;;;;5153088;27;20378;-66
2022/08/09 07:50:26;;;;;;;1.70;0.50;;;20.70;56.90;;;;;;5153003;27;20038;-66
2022/08/09 07:52:53;;;;;;;3.10;0.30;;;20.70;56.90;;;;;;5153412;27;20447;-65
2022/08/09 07:55:19;;;;;;;2.72;0.40;;;20.70;57.00;;;;;;5152868;27;20053;-65
2022/08/09 07:57:47;;;;;;;3.65;0.30;;;20.70;57.00;;;;;;5153143;27;20031;-66
2022/08/09 08:00:14;;;;;;;1.70;0.52;;;20.70;57.00;;;;;;5153011;27;20473;-66
2022/08/09 08:02:40;;;;;;;2.22;0.45;;;20.80;57.00;;;;;;5152916;27;20039;-66
2022/08/09 08:05:05;;;;;;;1.58;0.32;;;20.70;57.00;;;;;;5171415;27;20082;-66
2022/08/09 08:07:31;;;;;;;1.63;0.35;;;20.70;57.00;;;;;;5152665;27;20050;-66
2022/08/09 08:09:57;;;;;;;2.30;0.70;;;20.70;57.00;;;;;;5171311;27;20034;-65
2022/08/09 08:12:24;;;;;;;2.83;0.20;;;20.80;57.00;;;;;;5152953;27;20076;-65
2022/08/09 08:14:50;;;;;;;2.53;0.30;;;20.80;57.00;;;;;;5171229;27;20044;-65
2022/08/09 08:17:15;;;;;;;0.70;0.30;;;20.80;57.00;;;;;;5171564;27;20046;-65
2022/08/09 08:19:41;;;;;;;2.25;0.40;;;20.80;56.90;;;;;;5152739;27;20548;-65
2022/08/09 08:22:06;;;;;;;2.85;0.55;;;20.80;56.90;;;;;;5152485;27;20074;-65
2022/08/09 08:24:32;;;;;;;2.50;0.50;;;20.80;56.80;;;;;;5152501;27;20034;-65
2022/08/09 08:26:58;;;;;;;3.53;0.70;;;20.80;56.80;;;;;;5152296;27;20034;-65
2022/08/09 08:29:24;;;;;;;1.23;0.35;;;20.80;56.80;;;;;;5152624;27;20030;-65
2022/08/09 08:31:50;;;;;;;2.50;0.30;;;20.80;56.80;;;;;;5152475;27;20078;-64
2022/08/09 08:34:16;;;;;;;1.35;0.45;;;20.80;56.80;;;;;;5152600;27;20069;-65
2022/08/09 08:36:41;;;;;;;1.75;0.50;;;20.80;56.70;;;;;;5170849;27;20058;-65
2022/08/09 08:39:07;;;;;;;3.15;0.60;;;20.80;56.80;;;;;;5152164;27;20034;-65
2022/08/09 08:41:34;;;;;;;1.63;0.40;;;20.80;56.70;;;;;;5151942;27;20069;-64
2022/08/09 08:44:00;;;;;;;2.45;0.50;;;20.80;56.70;;;;;;5151496;27;20054;-65
2022/08/09 08:46:33;;;;;;;0.88;0.28;;;20.90;56.80;;;;;;5170509;27;20043;-65
2022/08/09 08:48:59;;;;;;;1.95;0.30;;;20.80;56.70;;;;;;5152153;27;20061;-65
2022/08/09 08:51:25;;;;;;;1.85;0.40;;;20.80;56.70;;;;;;5152167;27;20031;-65
2022/08/09 08:53:51;;;;;;;2.10;0.50;;;20.90;56.70;;;;;;5151788;27;20378;-64
2022/08/09 08:56:18;;;;;;;2.28;0.40;;;20.90;56.60;;;;;;5141630;27;20077;-65
2022/08/09 08:58:45;;;;;;;2.67;0.57;;;20.90;56.60;;;;;;5138224;27;20389;-64
2022/08/09 09:01:12;;;;;;;2.33;0.45;;;20.90;56.60;;;;;;5156656;27;20109;-65
2022/08/09 09:03:37;;;;;;;8.45;0.95;;;20.90;56.60;;;;;;5137788;27;20401;-65
2022/08/09 09:06:05;;;;;;;1.83;0.60;;;20.90;56.60;;;;;;5156398;27;20035;-65
2022/08/09 09:08:35;;;;;;;2.63;0.52;;;20.90;56.70;;;;;;5137700;27;20493;-65
2022/08/09 09:11:03;;;;;;;1.45;0.40;;;20.90;56.70;;;;;;5138060;27;20378;-65
2022/08/09 09:13:33;;;;;;;1.48;0.40;;;20.90;56.80;;;;;;5156260;27;20039;-65
2022/08/09 09:16:00;;;;;;;1.80;0.30;;;20.90;56.80;;;;;;5137969;27;20031;-65
2022/08/09 09:18:25;;;;;;;3.78;0.40;;;20.90;56.70;;;;;;5137471;27;20050;-70
2022/08/09 09:20:51;;;;;;;3.47;0.30;;;21.00;56.70;;;;;;5156170;27;20037;-65
2022/08/09 09:23:17;;;;;;;1.13;0.30;;;21.00;56.70;;;;;;5155902;27;20027;-65
2022/08/09 09:25:43;;;;;;;2.63;0.40;;;21.00;56.60;;;;;;5156049;27;20359;-65
2022/08/09 09:28:10;;;;;;;2.22;0.40;;;21.10;56.70;;;;;;5137329;27;20099;-64
2022/08/09 09:30:53;;;;;;;2.55;0.30;;;21.10;56.60;;;;;;5137320;27;20073;-65
2022/08/09 09:33:19;;;;;;;2.42;0.70;;;21.10;56.50;;;;;;5137480;27;20129;-64
2022/08/09 09:38:56;;;;;;;3.22;0.40;;;21.10;56.40;;;;;;5109839;27;20456;-65
2022/08/09 09:44:05;;;;;;;2.17;0.35;;;21.20;56.20;;;;;;5130339;27;20350;-65
2022/08/09 09:46:33;;;;;;;2.17;0.40;;;21.30;56.10;;;;;;5128864;28;20039;-65
2022/08/09 09:49:09;;;;;;;1.58;0.30;;;21.30;56.00;;;;;;5111996;28;20122;-65
2022/08/09 09:51:38;;;;;;;1.63;0.40;;;21.30;56.00;;;;;;5130542;27;20054;-65
2022/08/09 09:56:48;;;;;;;2.47;0.30;;;21.40;55.90;;;;;;5130381;27;20383;-65
2022/08/09 09:59:20;;;;;;;3.17;0.40;;;21.40;55.80;;;;;;5128878;28;20505;-65
2022/08/09 10:01:45;;;;;;;3.22;0.47;;;21.40;55.70;;;;;;5128997;28;20039;-65
2022/08/09 10:04:14;;;;;;;2.55;0.40;;;21.40;55.80;;;;;;5128883;27;20062;-65
2022/08/09 10:06:43;;;;;;;1.15;0.30;;;21.40;55.70;;;;;;5129136;27;20039;-64
2022/08/09 10:09:11;;;;;;;3.78;0.40;;;21.40;55.70;;;;;;5130165;27;20050;-65
2022/08/09 10:11:37;;;;;;;2.15;0.40;;;21.40;55.60;;;;;;5129937;28;20046;-64
2022/08/09 10:14:03;;;;;;;1.83;0.60;;;21.40;55.60;;;;;;5129977;27;20036;-65
2022/08/09 10:16:31;;;;;;;3.42;0.30;;;21.50;55.70;;;;;;5128654;28;20507;-65
2022/08/09 10:19:00;;;;;;;2.38;0.30;;;21.50;55.60;;;;;;5130033;27;20050;-64
2022/08/09 10:21:26;;;;;;;4.28;0.40;;;21.50;55.60;;;;;;5128567;28;20043;-65
2022/08/09 10:23:54;;;;;;;3.03;0.45;;;21.50;55.50;;;;;;5128712;28;20047;-65
2022/08/09 10:26:21;;;;;;;1.90;0.30;;;21.50;55.50;;;;;;5128520;27;20091;-65
2022/08/09 10:28:47;;;;;;;5.55;0.47;;;21.50;55.50;;;;;;5128725;28;20122;-65
2022/08/09 10:31:14;;;;;;;2.30;0.38;;;21.50;55.50;;;;;;5128316;28;20039;-64
2022/08/09 10:33:40;;;;;;;3.58;0.63;;;21.50;55.50;;;;;;5128595;28;20058;-64
2022/08/09 10:36:08;;;;;;;5.18;0.60;;;21.50;55.50;;;;;;5128271;28;20043;-65
2022/08/09 10:38:36;;;;;;;5.18;0.57;;;21.50;55.50;;;;;;5128509;28;20039;-65
2022/08/09 10:41:03;;;;;;;5.43;0.50;;;21.50;55.50;;;;;;5129409;27;20132;-65
2022/08/09 10:43:29;;;;;;;1.70;0.35;;;21.50;55.50;;;;;;5129675;27;20110;-65
2022/08/09 10:45:54;;;;;;;1.88;0.30;;;21.50;55.60;;;;;;5129501;27;20074;-65
2022/08/09 10:48:30;;;;;;;1.85;0.63;;;21.50;56.30;;;;;;5129311;28;20070;-65
2022/08/09 10:51:08;;;;;;;4.20;1.30;;;21.50;55.60;;;;;;5127992;28;20046;-65
2022/08/09 10:53:53;;;;;;;4.30;0.63;;;21.50;55.60;;;;;;5129278;27;20039;-65
2022/08/09 10:56:25;;;;;;;2.60;0.40;;;21.50;55.60;;;;;;5128902;27;20059;-64
2022/08/09 10:58:55;;;;;;;2.45;0.35;;;21.50;55.70;;;;;;5127750;28;20039;-65
2022/08/09 11:01:38;;;;;;;2.50;0.32;;;21.50;55.60;;;;;;5129088;27;20039;-65
2022/08/09 11:17:57;;;;;;;4.18;0.30;;;21.50;55.80;;;;;;5152931;27;1160713;-64
2022/08/09 11:20:40;;;;;;;2.00;0.30;;;21.50;55.80;;;;;;5152908;27;20496;-64
2022/08/09 11:23:06;;;;;;;3.25;0.40;;;21.50;55.90;;;;;;5153280;27;20042;-65
2022/08/09 11:28:33;;;;;;;2.13;0.38;;;21.50;55.90;;;;;;5130281;27;20357;-65
2022/08/09 11:31:01;;;;;;;2.60;0.65;;;21.50;55.90;;;;;;5130168;27;20052;-65
2022/08/09 11:33:43;;;;;;;2.67;0.65;;;21.50;56.00;;;;;;5128828;28;20047;-64
2022/08/09 11:36:11;;;;;;;2.17;0.32;;;21.50;56.00;;;;;;5128972;28;20479;-65
2022/08/09 11:38:36;;;;;;;2.90;0.40;;;21.50;56.00;;;;;;5128789;28;20050;-65
2022/08/09 11:41:27;;;;;;;2.30;0.20;;;21.50;56.10;;;;;;5128833;28;20040;-65
2022/08/09 11:43:52;;;;;;;;;;;21.50;56.10;;;;;;5146683;27;20031;-64
2022/08/09 11:46:18;;;;;;;1.40;0.32;;;21.50;56.10;;;;;;5129860;27;20356;-65
2022/08/09 11:52:05;;;;;;;1.70;0.30;;;21.50;56.10;;;;;;5151117;27;20121;-64
2022/08/09 11:54:31;;;;;;;0.88;0.60;;;21.50;56.10;;;;;;5111761;28;20057;-64
2022/08/09 11:57:37;;;;;;;2.80;0.22;;;21.50;56.20;;;;;;5094843;28;20039;-64
2022/08/09 12:00:07;;;;;;;2.00;0.20;;;21.50;56.10;;;;;;5129922;28;20043;-65
2022/08/09 12:02:37;;;;;;;;;;;21.50;56.20;;;;;;5112190;28;20036;-65
2022/08/09 12:05:03;;;;;;;3.90;0.73;;;21.50;56.20;;;;;;5111806;28;19919;-65
2022/08/09 12:07:29;;;;;;;4.03;0.50;;;21.50;56.20;;;;;;5111617;28;20049;-64
2022/08/09 12:09:59;;;;;;;3.60;0.38;;;21.50;56.20;;;;;;5111431;28;20092;-65
2022/08/09 12:12:25;;;;;;;2.65;0.20;;;21.50;56.20;;;;;;5130005;28;20094;-65
2022/08/09 12:14:50;;;;;;;2.97;0.50;;;21.50;56.30;;;;;;5111430;28;20063;-65
2022/08/09 12:17:16;;;;;;;1.80;0.20;;;21.50;56.30;;;;;;5111514;28;20041;-64
2022/08/09 12:19:41;;;;;;;1.50;0.20;;;21.50;56.30;;;;;;5129651;28;20135;-65
2022/08/09 12:22:08;;;;;;;2.65;0.60;;;21.50;56.20;;;;;;5129540;28;20031;-65
2022/08/09 12:24:34;;;;;;;3.22;0.47;;;21.60;56.40;;;;;;5111209;28;20043;-65
2022/08/09 12:26:59;;;;;;;2.85;0.43;;;21.50;56.30;;;;;;5111276;28;20122;-65
2022/08/09 12:29:30;;;;;;;2.80;0.30;;;21.50;56.30;;;;;;5129395;28;20035;-65
2022/08/09 12:32:04;;;;;;;;;;;21.60;56.40;;;;;;5111563;28;20051;-65
2022/08/09 12:34:36;;;;;;;5.38;0.47;;;21.60;56.30;;;;;;5110958;28;19915;-65
2022/08/09 12:37:03;;;;;;;6.95;0.80;;;21.60;56.40;;;;;;5129375;28;20516;-65
2022/08/09 12:39:29;;;;;;;5.20;0.70;;;21.60;56.40;;;;;;5111223;28;20049;-65
2022/08/09 12:42:05;;;;;;;2.97;0.50;;;21.60;56.40;;;;;;5111158;28;20410;-65
2022/08/09 12:44:31;;;;;;;5.03;1.27;;;21.60;56.40;;;;;;5111007;28;20048;-65
2022/08/09 12:46:57;;;;;;;4.20;0.45;;;21.60;56.40;;;;;;5111089;28;20509;-64
2022/08/09 12:49:23;;;;;;;5.20;1.02;;;21.60;56.40;;;;;;5110521;28;20062;-65
2022/08/09 12:51:56;;;;;;;7.53;0.50;;;21.60;56.40;;;;;;5110978;28;20035;-65
2022/08/09 12:54:25;;;;;;;10.35;0.82;;;21.60;56.40;;;;;;5111003;28;20036;-65
2022/08/09 12:56:52;;;;;;;5.13;0.40;;;21.60;56.40;;;;;;5110662;28;20027;-65
2022/08/09 12:59:20;;;;;;;9.68;1.25;;;21.60;56.50;;;;;;5110894;28;20047;-65
2022/08/09 13:02:04;;;;;;;2.40;0.57;;;21.60;56.50;;;;;;5121124;28;20644;-65
2022/08/09 13:04:30;;;;;;;6.28;0.63;;;21.70;56.50;;;;;;5096965;28;20505;-64
2022/08/09 13:06:56;;;;;;;5.07;0.60;;;21.60;56.50;;;;;;5115207;28;20433;-64
2022/08/09 13:09:28;;;;;;;7.22;0.50;;;21.70;56.60;;;;;;5096890;28;20070;-65
2022/08/09 13:11:59;;;;;;;10.27;1.13;;;21.70;56.50;;;;;;5115087;28;20130;-64
2022/08/09 13:14:26;;;;;;;5.72;0.30;;;21.70;56.50;;;;;;5096780;28;20044;-64
2022/08/09 13:16:58;;;;;;;4.90;0.50;;;21.70;56.50;;;;;;5096714;28;20051;-64
2022/08/09 13:19:29;;;;;;;3.25;0.28;;;21.70;56.50;;;;;;5096672;28;20039;-65
2022/08/09 13:22:15;;;;;;;5.38;0.70;;;21.70;56.50;;;;;;5096865;28;20092;-64
2022/08/09 13:24:44;;;;;;;6.32;0.57;;;21.70;56.50;;;;;;5096888;28;20372;-64
2022/08/09 13:30:18;;;;;;;5.30;0.68;;;21.70;56.50;;;;;;5130290;27;20386;-64
2022/08/09 13:35:26;;;;;;;5.43;0.55;;;21.70;56.60;;;;;;5151012;27;20457;-64
2022/08/09 13:37:54;;;;;;;2.95;0.60;;;21.70;56.60;;;;;;5130266;28;20049;-64
2022/08/09 13:40:20;;;;;;;5.13;0.30;;;21.70;56.60;;;;;;5112010;28;20050;-64